createdAt,value
2022-08-11T00:09:55.851Z,72.41
2022-08-11T00:20:13.297Z,64.84
2022-08-11T00:30:17.792Z,50.65
2022-08-11T00:40:43.018Z,51.71
2022-08-11T00:51:06.955Z,54.58
2022-08-11T01:01:10.875Z,72.10
2022-08-11T01:11:28.122Z,64.43
2022-08-11T01:21:39.193Z,50.30
2022-08-11T01:32:08.645Z,51.13
2022-08-11T01:42:51.530Z,54.51
2022-08-11T01:53:07.817Z,73.13
2022-08-11T02:03:15.474Z,64.77
2022-08-11T02:13:46.710Z,50.52
2022-08-11T02:24:40.128Z,51.35
2022-08-11T02:34:59.399Z,54.49
2022-08-11T02:45:32.262Z,73.05
2022-08-11T02:55:58.261Z,65.23
2022-08-11T03:06:26.552Z,50.33
2022-08-11T03:16:47.228Z,51.17
2022-08-11T03:27:01.379Z,54.70
2022-08-11T03:37:16.293Z,73.29
2022-08-11T03:47:57.924Z,65.59
2022-08-11T03:58:18.864Z,50.66
2022-08-11T04:08:37.470Z,51.94
2022-08-11T04:19:29.346Z,68.64
2022-08-11T04:30:05.621Z,62.73
2022-08-11T04:40:26.851Z,50.72
2022-08-11T04:51:03.283Z,55.29
2022-08-11T05:01:43.293Z,61.75
2022-08-11T05:12:23.112Z,47.02
2022-08-11T05:22:48.555Z,44.31
2022-08-11T05:33:23.277Z,41.30
2022-08-11T05:44:20.925Z,37.46
2022-08-11T05:54:29.627Z,33.24
2022-08-11T06:04:33.349Z,30.99
2022-08-11T06:14:43.533Z,27.12
2022-08-11T06:24:54.228Z,25.13
2022-08-11T06:35:07.901Z,21.58
2022-08-11T06:45:47.078Z,22.16
2022-08-11T06:56:09.158Z,21.26
2022-08-11T07:06:19.485Z,19.95
2022-08-11T07:16:28.830Z,18.69
2022-08-11T07:26:52.194Z,17.60
2022-08-11T07:36:57.536Z,16.81
2022-08-11T07:47:35.927Z,15.95
2022-08-11T07:58:16.191Z,15.82
2022-08-11T08:08:38.404Z,15.54
2022-08-11T08:18:41.410Z,16.25
2022-08-11T08:50:03.387Z,15.04
2022-08-11T09:00:06.891Z,13.99
2022-08-11T09:10:12.040Z,16.33
2022-08-11T09:20:26.457Z,18.14
2022-08-11T09:30:29.647Z,17.81
2022-08-11T09:40:35.525Z,17.80
2022-08-11T09:50:48.219Z,20.56
2022-08-11T10:00:53.600Z,20.39
